createdAt,value
2023-05-23T00:01:31.713Z,99398.41
2023-05-23T00:03:59.866Z,99391.81
2023-05-23T00:06:27.912Z,99396.59
2023-05-23T00:08:56.225Z,99393.94
2023-05-23T00:11:27.126Z,99345.75
2023-05-23T00:13:57.568Z,99395.91
2023-05-23T00:16:25.867Z,99393.28
2023-05-23T00:18:53.969Z,99388.81
2023-05-23T00:21:21.948Z,99389.75
2023-05-23T00:23:50.555Z,99391.50
2023-05-23T00:26:18.532Z,99385.06
2023-05-23T00:28:46.483Z,99387.53
2023-05-23T00:31:16.070Z,99385.56
2023-05-23T00:33:44.100Z,99386.63
2023-05-23T00:36:13.598Z,99385.81
2023-05-23T00:38:41.696Z,99388.06
2023-05-23T00:41:09.679Z,99383.94
2023-05-23T00:43:37.751Z,99389.13
2023-05-23T00:46:06.138Z,99386.31
2023-05-23T00:48:38.328Z,99386.75
2023-05-23T00:51:06.439Z,99383.75
2023-05-23T00:53:36.186Z,99391.69
2023-05-23T00:56:04.787Z,99373.72
2023-05-23T00:58:32.876Z,99389.38
2023-05-23T01:01:01.157Z,99381.31
2023-05-23T01:03:30.392Z,99348.75
2023-05-23T01:05:59.883Z,99380.50
2023-05-23T01:08:30.380Z,99348.78
2023-05-23T01:11:14.778Z,99366.34
2023-05-23T01:13:49.178Z,99368.59
2023-05-23T01:16:22.255Z,99372.75
2023-05-23T01:18:58.399Z,99375.06
2023-05-23T01:21:28.625Z,99370.09
2023-05-23T01:24:14.405Z,99373.56
2023-05-23T01:26:56.740Z,99374.09
2023-05-23T01:29:29.671Z,99366.50
2023-05-23T01:32:00.020Z,99373.91
2023-05-23T01:34:28.207Z,99360.97
2023-05-23T01:36:56.729Z,99325.16
2023-05-23T01:39:25.287Z,99368.19
2023-05-23T01:41:54.801Z,99367.34
2023-05-23T01:44:23.500Z,99370.38
2023-05-23T01:46:52.892Z,99347.66
2023-05-23T01:49:23.376Z,99365.31
2023-05-23T01:51:51.817Z,99356.56
2023-05-23T01:54:20.711Z,99362.13
2023-05-23T01:56:49.520Z,99361.81
2023-05-23T01:59:17.656Z,99368.00
2023-05-23T02:01:45.789Z,99352.53
2023-05-23T02:04:15.860Z,99371.50
2023-05-23T02:06:43.786Z,99370.81
2023-05-23T02:09:11.813Z,99365.31
2023-05-23T02:11:39.794Z,99364.09
2023-05-23T02:14:08.453Z,99356.03
2023-05-23T02:16:36.765Z,99351.91
2023-05-23T02:19:05.487Z,99352.31
2023-05-23T02:21:35.637Z,99359.38
2023-05-23T02:24:03.930Z,99355.09
2023-05-23T02:26:31.826Z,99353.13
2023-05-23T02:28:59.783Z,99357.97
2023-05-23T02:31:28.066Z,99363.00
2023-05-23T02:33:56.108Z,99365.19
2023-05-23T02:36:24.244Z,99364.19
2023-05-23T02:38:53.565Z,99371.03
2023-05-23T02:41:21.577Z,99364.78
2023-05-23T02:43:49.580Z,99372.09
2023-05-23T02:46:17.621Z,99364.56
2023-05-23T02:48:45.740Z,99362.25
2023-05-23T02:51:14.565Z,99360.81
2023-05-23T02:53:42.764Z,99365.25
2023-05-23T02:56:13.551Z,99360.34
2023-05-23T02:58:41.530Z,99354.72
2023-05-23T03:01:09.762Z,99356.63
2023-05-23T03:03:37.843Z,99351.66
2023-05-23T03:06:06.410Z,99358.19
2023-05-23T03:08:34.444Z,99353.69
2023-05-23T03:11:02.350Z,99357.31
2023-05-23T03:13:32.263Z,99360.66
2023-05-23T03:16:00.315Z,99362.31
2023-05-23T03:18:28.334Z,99266.06
2023-05-23T03:20:56.297Z,99362.69
2023-05-23T03:23:24.258Z,99355.41
2023-05-23T03:25:52.180Z,99359.66
2023-05-23T03:28:20.106Z,99357.72
2023-05-23T03:30:49.416Z,99362.16
2023-05-23T03:33:17.446Z,99360.53
2023-05-23T03:35:45.942Z,99359.09
2023-05-23T03:38:13.897Z,99357.34
2023-05-23T03:40:41.774Z,99358.03
2023-05-23T03:43:10.126Z,99357.56
2023-05-23T03:45:38.092Z,99359.13
2023-05-23T03:48:07.525Z,99360.06
2023-05-23T03:50:35.715Z,99348.47
2023-05-23T03:53:03.632Z,99344.00
2023-05-23T03:55:33.091Z,99357.66
2023-05-23T03:58:01.122Z,99358.41
2023-05-23T04:00:29.208Z,99352.34
2023-05-23T04:02:57.477Z,99353.91
2023-05-23T04:05:26.998Z,99353.50
2023-05-23T04:07:54.972Z,99356.63
2023-05-23T04:10:23.042Z,99366.63
2023-05-23T04:12:51.707Z,99362.59
2023-05-23T04:15:21.532Z,99369.03
2023-05-23T04:17:49.761Z,99370.25
2023-05-23T04:20:18.084Z,99365.06
2023-05-23T04:22:47.362Z,99361.94
2023-05-23T04:25:15.344Z,99361.63
2023-05-23T04:27:43.311Z,99384.56
2023-05-23T04:30:11.854Z,99374.78
2023-05-23T04:32:40.366Z,99370.53
2023-05-23T04:35:09.144Z,99375.13
2023-05-23T04:37:37.970Z,99378.34
2023-05-23T04:40:08.353Z,99376.53
2023-05-23T04:42:36.594Z,99371.41
2023-05-23T04:45:04.768Z,99375.13
2023-05-23T04:47:37.273Z,99383.38
2023-05-23T04:50:05.800Z,99360.16
2023-05-23T04:52:34.187Z,99382.09
2023-05-23T04:55:02.480Z,99382.09
2023-05-23T04:57:31.838Z,99377.69
2023-05-23T05:00:01.213Z,99378.50
2023-05-23T05:02:33.867Z,99380.47
2023-05-23T05:05:01.876Z,99387.22
2023-05-23T05:07:30.507Z,99385.22
2023-05-23T05:10:00.907Z,99378.09
2023-05-23T05:12:29.191Z,99382.03
2023-05-23T05:14:58.602Z,99389.69
2023-05-23T05:17:26.815Z,99389.03
2023-05-23T05:19:54.796Z,99392.00
2023-05-23T05:22:23.375Z,99376.69
2023-05-23T05:24:51.427Z,99395.63
2023-05-23T05:27:19.417Z,99401.56
2023-05-23T05:29:48.289Z,99404.38
2023-05-23T05:32:17.766Z,99405.03
2023-05-23T05:34:49.131Z,99406.53
2023-05-23T05:37:17.701Z,99407.50
2023-05-23T05:39:45.605Z,99402.41
2023-05-23T05:42:13.582Z,99407.53
2023-05-23T05:44:41.664Z,99406.66
2023-05-23T05:47:09.559Z,99407.84
2023-05-23T05:49:38.853Z,99408.81
2023-05-23T05:52:08.239Z,99407.47
2023-05-23T05:54:36.351Z,99398.16
2023-05-23T05:57:04.351Z,99397.31
2023-05-23T05:59:32.727Z,99399.06
2023-05-23T06:02:00.846Z,99395.16
2023-05-23T06:04:28.795Z,99407.13
2023-05-23T06:06:58.132Z,99414.63
2023-05-23T06:09:26.126Z,99397.34
2023-05-23T06:11:54.025Z,99414.19
2023-05-23T06:14:21.921Z,99413.25
2023-05-23T06:16:50.313Z,99409.81
2023-05-23T06:19:18.274Z,99402.75
2023-05-23T06:21:46.199Z,99398.44
2023-05-23T06:24:15.590Z,99383.34
2023-05-23T06:26:43.626Z,99408.38
2023-05-23T06:29:11.605Z,99403.91
2023-05-23T06:31:39.692Z,99403.81
2023-05-23T06:34:07.763Z,99406.84
2023-05-23T06:36:35.725Z,99401.53
2023-05-23T06:39:03.732Z,99370.31
2023-05-23T06:41:33.131Z,99399.53
2023-05-23T06:44:01.355Z,99400.25
2023-05-23T06:46:29.464Z,99401.53
2023-05-23T06:49:10.666Z,99402.34
2023-05-23T06:51:42.243Z,99391.84
2023-05-23T06:54:10.294Z,99387.09
2023-05-23T06:56:39.832Z,99381.13
2023-05-23T06:59:07.981Z,99385.50
2023-05-23T07:01:35.985Z,99352.97
2023-05-23T07:04:03.932Z,99386.88
2023-05-23T07:06:32.815Z,99383.59
2023-05-23T07:09:00.783Z,99382.00
2023-05-23T07:11:28.773Z,99383.81
2023-05-23T07:13:58.143Z,99386.31
2023-05-23T07:16:26.335Z,99382.63
2023-05-23T07:18:54.381Z,99371.84
2023-05-23T07:21:22.370Z,99370.19
2023-05-23T07:23:50.328Z,99388.50
2023-05-23T07:26:18.230Z,99379.69
2023-05-23T07:28:46.700Z,99373.59
2023-05-23T07:31:16.091Z,99367.41
2023-05-23T07:33:44.067Z,99371.81
2023-05-23T07:36:12.470Z,99372.34
2023-05-23T07:38:40.384Z,99363.41
2023-05-23T07:41:11.934Z,99369.78
2023-05-23T07:43:40.942Z,99367.44
2023-05-23T07:46:09.152Z,99369.91
2023-05-23T07:48:38.511Z,99383.91
2023-05-23T07:51:06.477Z,99370.06
2023-05-23T07:53:35.039Z,99371.34
2023-05-23T07:56:03.023Z,99371.84
2023-05-23T07:58:30.953Z,99368.28
2023-05-23T08:00:59.736Z,99359.91
2023-05-23T08:03:27.842Z,99367.28
2023-05-23T08:05:57.156Z,99376.09
2023-05-23T08:08:25.149Z,99367.06
2023-05-23T08:10:53.097Z,99327.72
2023-05-23T08:13:21.060Z,99367.66
2023-05-23T08:15:49.051Z,99352.94
2023-05-23T08:18:18.258Z,99361.34
2023-05-23T08:20:46.350Z,99365.22
2023-05-23T08:23:15.738Z,99367.09
2023-05-23T08:25:43.697Z,99363.81
2023-05-23T08:28:11.667Z,99361.13
2023-05-23T08:30:39.693Z,99358.88
2023-05-23T08:33:07.904Z,99364.44
2023-05-23T08:35:36.643Z,99355.38
2023-05-23T08:38:07.877Z,99356.44
2023-05-23T08:40:38.375Z,99349.84
2023-05-23T08:43:06.386Z,99358.28
2023-05-23T08:45:34.987Z,99352.28
2023-05-23T08:48:04.673Z,99350.16
2023-05-23T08:50:33.703Z,99361.31
2023-05-23T08:53:02.321Z,99337.75
2023-05-23T08:55:31.590Z,99349.53
2023-05-23T08:58:01.345Z,99354.38
2023-05-23T09:00:29.727Z,99334.59
2023-05-23T09:02:58.519Z,99343.91
2023-05-23T09:05:27.827Z,99343.63
2023-05-23T09:07:56.901Z,99349.06
2023-05-23T09:10:24.971Z,99345.16
2023-05-23T09:12:53.207Z,99338.63
2023-05-23T09:15:24.009Z,99344.84
2023-05-23T09:17:52.147Z,99337.25
2023-05-23T09:20:20.127Z,99342.69
2023-05-23T09:22:49.198Z,99346.75
2023-05-23T09:25:17.488Z,99343.19
2023-05-23T09:27:48.147Z,99349.38
2023-05-23T09:30:16.910Z,99341.72
2023-05-23T09:33:02.043Z,99331.38
2023-05-23T09:35:32.018Z,99346.44
2023-05-23T09:38:00.476Z,99343.91
2023-05-23T09:40:33.263Z,99341.22
2023-05-23T09:43:05.092Z,99339.47
2023-05-23T09:45:33.854Z,99344.53
2023-05-23T09:48:03.295Z,99339.84
2023-05-23T09:50:33.905Z,99339.19
2023-05-23T09:53:02.393Z,99337.59
2023-05-23T09:55:30.466Z,99341.47
2023-05-23T09:58:00.874Z,99324.03
2023-05-23T10:00:29.815Z,99331.63
2023-05-23T10:03:12.525Z,99340.22
2023-05-23T10:05:45.767Z,99334.78
2023-05-23T10:08:17.236Z,99336.56
2023-05-23T10:11:31.195Z,99337.84
2023-05-23T10:14:00.638Z,99330.91
2023-05-23T10:16:35.453Z,99316.66
2023-05-23T10:19:11.692Z,99332.59
2023-05-23T10:21:46.891Z,99322.69
2023-05-23T10:24:16.639Z,99321.84
2023-05-23T10:26:46.352Z,99308.00
2023-05-23T10:29:14.291Z,99325.78
2023-05-23T10:31:42.927Z,99327.19
2023-05-23T10:34:22.930Z,99307.44
2023-05-23T10:36:58.643Z,99320.09
2023-05-23T10:39:37.636Z,99314.59
2023-05-23T10:42:12.852Z,99311.78
2023-05-23T10:44:40.909Z,99308.63
2023-05-23T10:47:09.072Z,99306.16
2023-05-23T10:49:43.086Z,99300.00
2023-05-23T10:52:12.492Z,99318.47
2023-05-23T10:54:45.075Z,99300.03
2023-05-23T10:57:17.679Z,99301.94
2023-05-23T10:59:46.953Z,99303.00
2023-05-23T11:02:16.468Z,99310.66
2023-05-23T11:04:48.349Z,99283.47
2023-05-23T11:07:32.941Z,99300.47
2023-05-23T11:10:11.569Z,99280.75
2023-05-23T11:12:42.360Z,99316.47
2023-05-23T11:15:25.364Z,99309.72
2023-05-23T11:17:55.060Z,99307.72
2023-05-23T11:20:28.470Z,99312.81
2023-05-23T11:23:00.972Z,99312.63
2023-05-23T11:25:43.089Z,99311.13
2023-05-23T11:28:11.819Z,99312.63
2023-05-23T11:30:41.405Z,99309.03
2023-05-23T11:33:13.482Z,99310.81
2023-05-23T11:35:43.362Z,99310.63
2023-05-23T11:38:12.048Z,99304.00
2023-05-23T11:40:41.517Z,99315.22
2023-05-23T11:43:11.016Z,99314.03
2023-05-23T11:45:39.953Z,99314.63
2023-05-23T11:48:09.284Z,99315.59
2023-05-23T11:50:47.654Z,99310.91
2023-05-23T11:53:17.662Z,99319.44
2023-05-23T11:55:50.685Z,99323.59
2023-05-23T11:58:19.084Z,99315.66
2023-05-23T12:00:47.650Z,99310.09
2023-05-23T12:03:16.524Z,99313.75
2023-05-23T12:05:46.296Z,99324.66
2023-05-23T12:08:15.220Z,99307.91
2023-05-23T12:10:54.714Z,99318.84
2023-05-23T12:13:25.948Z,99306.69
2023-05-23T12:15:56.308Z,99314.28
2023-05-23T12:18:24.782Z,99292.97
2023-05-23T12:20:54.432Z,99305.31
2023-05-23T12:23:23.532Z,99308.22
2023-05-23T12:25:53.107Z,99305.47
2023-05-23T12:28:21.577Z,99289.38
2023-05-23T12:30:49.825Z,99298.75
2023-05-23T12:33:20.235Z,99301.13
2023-05-23T12:35:48.244Z,99293.09
2023-05-23T12:38:18.489Z,99285.06
2023-05-23T12:40:46.618Z,99285.59
2023-05-23T12:43:17.040Z,99262.41
2023-05-23T12:45:44.991Z,99282.31
2023-05-23T12:48:13.088Z,99277.91
2023-05-23T12:50:41.374Z,99271.91
2023-05-23T12:53:09.387Z,99265.44
2023-05-23T12:55:39.174Z,99263.53
2023-05-23T12:58:07.461Z,99262.91
2023-05-23T13:00:35.401Z,99264.41
2023-05-23T13:03:03.507Z,99269.09
2023-05-23T13:05:31.474Z,99265.59
2023-05-23T13:08:00.316Z,99264.19
2023-05-23T13:10:30.949Z,99264.63
2023-05-23T13:13:02.451Z,99262.63
2023-05-23T13:15:30.470Z,99258.84
2023-05-23T13:17:58.662Z,99232.47
2023-05-23T13:20:30.120Z,99258.41
2023-05-23T13:22:58.616Z,99260.47
2023-05-23T13:25:27.224Z,99259.06
2023-05-23T13:27:56.132Z,99256.38
2023-05-23T13:30:26.249Z,99241.47
2023-05-23T13:32:54.204Z,99255.31
2023-05-23T13:35:22.358Z,99247.16
2023-05-23T13:37:50.661Z,99244.22
2023-05-23T13:40:20.509Z,99240.03
2023-05-23T13:42:51.044Z,99242.59
2023-05-23T13:45:19.445Z,99241.00
2023-05-23T13:47:48.887Z,99236.41
2023-05-23T13:50:16.970Z,99241.69
2023-05-23T13:52:48.281Z,99243.59
2023-05-23T13:55:18.777Z,99242.69
2023-05-23T13:57:46.932Z,99240.88
2023-05-23T14:00:16.168Z,99238.69
2023-05-23T14:02:44.205Z,99245.50
2023-05-23T14:05:13.633Z,99242.63
2023-05-23T14:07:43.003Z,99251.44
2023-05-23T14:10:11.914Z,99247.88
2023-05-23T14:12:39.916Z,99254.19
2023-05-23T14:15:08.960Z,99252.81
2023-05-23T14:17:36.951Z,99267.66
2023-05-23T14:20:05.346Z,99265.50
2023-05-23T14:22:34.716Z,99272.47
2023-05-23T14:25:02.664Z,99286.84
2023-05-23T14:27:30.653Z,99288.81
2023-05-23T14:29:58.585Z,99278.38
2023-05-23T14:32:26.898Z,99287.16
2023-05-23T14:34:55.427Z,99287.28
2023-05-23T14:37:23.347Z,99284.38
2023-05-23T14:39:52.694Z,99288.53
2023-05-23T14:42:20.682Z,99288.13
2023-05-23T14:44:48.662Z,99289.56
2023-05-23T14:47:16.777Z,99279.50
2023-05-23T14:49:44.808Z,99272.91
2023-05-23T14:52:13.673Z,99270.16
2023-05-23T14:54:41.838Z,99257.84
2023-05-23T14:57:11.164Z,99259.84
2023-05-23T14:59:39.221Z,99256.25
2023-05-23T15:02:07.388Z,99252.72
2023-05-23T15:04:36.149Z,99245.50
2023-05-23T15:07:04.224Z,99240.34
2023-05-23T15:09:32.370Z,99230.50
2023-05-23T15:12:00.320Z,99240.72
2023-05-23T15:14:32.140Z,99236.88
2023-05-23T15:17:07.735Z,99239.81
2023-05-23T15:19:36.699Z,99244.47
2023-05-23T15:22:05.647Z,99250.59
2023-05-23T15:24:34.960Z,99250.47
2023-05-23T15:27:19.014Z,99254.16
2023-05-23T15:29:49.899Z,99263.00
2023-05-23T15:32:17.862Z,99263.00
2023-05-23T15:34:46.016Z,99253.34
2023-05-23T15:37:13.973Z,99260.72
2023-05-23T15:39:42.017Z,99265.25
2023-05-23T15:42:10.131Z,99263.84
2023-05-23T15:44:38.184Z,99265.09
2023-05-23T15:47:07.881Z,99264.88
2023-05-23T15:49:36.338Z,99263.63
2023-05-23T15:52:04.472Z,99262.84
2023-05-23T15:54:32.399Z,99258.50
2023-05-23T15:57:00.447Z,99263.63
2023-05-23T15:59:28.398Z,99255.22
2023-05-23T16:01:56.412Z,99255.63
2023-05-23T16:04:25.792Z,99259.13
2023-05-23T16:06:53.733Z,99257.22
2023-05-23T16:09:21.669Z,99259.31
2023-05-23T16:11:49.704Z,99251.09
2023-05-23T16:14:17.697Z,99250.03
2023-05-23T16:16:45.913Z,99242.28
2023-05-23T16:19:13.971Z,99246.50
2023-05-23T16:21:43.589Z,99242.13
2023-05-23T16:24:12.262Z,99233.16
2023-05-23T16:26:40.463Z,99246.41
2023-05-23T16:29:08.505Z,99245.13
2023-05-23T16:31:36.876Z,99245.47
2023-05-23T16:34:05.089Z,99244.03
2023-05-23T16:36:33.920Z,99243.41
2023-05-23T16:39:03.555Z,99244.59
2023-05-23T16:41:31.562Z,99245.72
2023-05-23T16:43:59.628Z,99245.50
2023-05-23T16:46:27.711Z,99251.63
2023-05-23T16:48:55.972Z,99260.38
2023-05-23T16:51:23.961Z,99256.31
2023-05-23T16:53:52.058Z,99267.28
2023-05-23T16:56:21.564Z,99263.63
2023-05-23T16:58:49.500Z,99267.75
2023-05-23T17:01:19.942Z,99265.91
2023-05-23T17:03:49.072Z,99257.91
2023-05-23T17:06:17.116Z,99251.56
2023-05-23T17:08:45.102Z,99266.50
2023-05-23T17:11:13.051Z,99266.94
2023-05-23T17:13:42.557Z,99260.16
2023-05-23T17:16:11.056Z,99268.13
2023-05-23T17:18:39.090Z,99269.72
2023-05-23T17:21:07.138Z,99262.16
2023-05-23T17:23:35.192Z,99268.91
2023-05-23T17:26:03.223Z,99272.00
2023-05-23T17:28:31.177Z,99267.66
2023-05-23T17:31:01.002Z,99266.81
2023-05-23T17:33:29.058Z,99271.75
2023-05-23T17:35:56.985Z,99267.22
2023-05-23T17:38:25.112Z,99275.00
2023-05-23T17:40:53.151Z,99266.59
2023-05-23T17:43:21.236Z,99277.69
2023-05-23T17:45:49.178Z,99275.03
2023-05-23T17:48:18.479Z,99279.94
2023-05-23T17:50:46.701Z,99277.28
2023-05-23T17:53:18.301Z,99265.56
2023-05-23T17:55:47.550Z,99284.41
2023-05-23T17:58:15.732Z,99260.84
2023-05-23T18:00:43.994Z,99302.97
2023-05-23T18:03:12.395Z,99305.78
2023-05-23T18:05:41.707Z,99317.59
2023-05-23T18:08:09.671Z,99307.94
2023-05-23T18:10:37.987Z,99314.28
2023-05-23T18:13:06.050Z,99311.63
2023-05-23T18:15:34.068Z,99316.94
2023-05-23T18:18:02.067Z,99326.84
2023-05-23T18:20:29.999Z,99332.41
2023-05-23T18:22:59.303Z,99324.41
2023-05-23T18:25:28.318Z,99328.09
2023-05-23T18:27:56.742Z,99342.22
2023-05-23T18:30:24.776Z,99345.25
2023-05-23T18:32:52.862Z,99342.56
2023-05-23T18:35:21.729Z,99328.59
2023-05-23T18:37:49.872Z,99350.53
2023-05-23T18:40:21.786Z,99350.72
2023-05-23T18:42:50.366Z,99339.09
2023-05-23T18:45:18.394Z,99351.16
2023-05-23T18:47:46.433Z,99338.44
2023-05-23T18:50:15.263Z,99347.34
2023-05-23T18:52:43.863Z,99364.53
2023-05-23T18:55:12.396Z,99375.63
2023-05-23T18:57:41.800Z,99372.97
2023-05-23T19:00:10.824Z,99362.44
2023-05-23T19:02:43.795Z,99378.78
2023-05-23T19:05:12.413Z,99374.97
2023-05-23T19:07:40.876Z,99386.63
2023-05-23T19:10:09.652Z,99398.72
2023-05-23T19:12:38.831Z,99392.91
2023-05-23T19:15:10.957Z,99395.06
2023-05-23T19:17:39.234Z,99399.63
2023-05-23T19:20:08.357Z,99400.09
2023-05-23T19:22:50.114Z,99393.88
2023-05-23T19:25:19.402Z,99400.81
2023-05-23T19:27:47.383Z,99404.81
2023-05-23T19:30:16.897Z,99403.91
2023-05-23T19:32:45.012Z,99403.66
2023-05-23T19:35:16.323Z,99402.53
2023-05-23T19:37:44.975Z,99405.19
2023-05-23T19:40:13.755Z,99389.13
2023-05-23T19:42:41.742Z,99414.06
2023-05-23T19:45:10.396Z,99411.13
2023-05-23T19:47:39.738Z,99411.13
2023-05-23T19:50:08.419Z,99413.78
2023-05-23T19:52:36.322Z,99401.84
2023-05-23T19:55:04.612Z,99404.66
2023-05-23T19:57:33.321Z,99404.28
2023-05-23T20:00:01.595Z,99410.41
2023-05-23T20:02:29.677Z,99406.47
2023-05-23T20:04:58.997Z,99404.97
2023-05-23T20:07:27.034Z,99400.31
2023-05-23T20:09:55.453Z,99399.94
2023-05-23T20:12:23.428Z,99405.38
2023-05-23T20:14:51.460Z,99391.94
2023-05-23T20:17:19.439Z,99395.97
2023-05-23T20:19:50.099Z,99406.56
2023-05-23T20:22:19.482Z,99399.53
2023-05-23T20:24:47.900Z,99391.31
2023-05-23T20:27:16.631Z,99406.03
2023-05-23T20:29:44.647Z,99403.38
2023-05-23T20:32:12.665Z,99407.47
2023-05-23T20:34:40.644Z,99404.00
2023-05-23T20:37:08.615Z,99400.41
2023-05-23T20:39:38.638Z,99389.53
2023-05-23T20:42:10.408Z,99404.19
2023-05-23T20:44:39.314Z,99400.81
2023-05-23T20:47:07.715Z,99402.50
2023-05-23T20:49:37.438Z,99402.16
2023-05-23T20:52:06.559Z,99411.00
2023-05-23T20:54:36.679Z,99387.38
2023-05-23T20:57:06.546Z,99417.78
2023-05-23T20:59:34.547Z,99417.94
2023-05-23T21:02:02.723Z,99417.81
2023-05-23T21:04:30.660Z,99422.81
2023-05-23T21:06:58.655Z,99422.66
2023-05-23T21:09:26.669Z,99422.03
2023-05-23T21:11:54.603Z,99426.63
2023-05-23T21:14:24.025Z,99431.59
2023-05-23T21:16:52.125Z,99435.81
2023-05-23T21:19:20.309Z,99431.50
2023-05-23T21:21:48.404Z,99426.28
2023-05-23T21:24:16.434Z,99429.13
2023-05-23T21:26:44.361Z,99439.00
2023-05-23T21:29:12.348Z,99441.59
2023-05-23T21:31:42.195Z,99442.09
2023-05-23T21:34:23.103Z,99435.41
2023-05-23T21:36:51.889Z,99434.31
2023-05-23T21:39:19.978Z,99449.19
2023-05-23T21:41:47.986Z,99430.56
2023-05-23T21:44:17.769Z,99444.47
2023-05-23T21:46:47.479Z,99448.88
2023-05-23T21:49:15.698Z,99444.91
2023-05-23T21:51:44.229Z,99441.41
2023-05-23T21:54:12.297Z,99439.94
2023-05-23T21:56:40.242Z,99436.81
2023-05-23T21:59:08.416Z,99429.84
2023-05-23T22:01:36.802Z,99444.50
2023-05-23T22:04:06.516Z,99444.25
2023-05-23T22:06:34.536Z,99417.22
2023-05-23T22:09:02.537Z,99440.75
2023-05-23T22:11:34.241Z,99422.00
2023-05-23T22:14:02.384Z,99444.16
2023-05-23T22:16:32.961Z,99422.13
2023-05-23T22:19:02.266Z,99439.50
2023-05-23T22:21:31.760Z,99447.13
2023-05-23T22:24:00.088Z,99443.88
2023-05-23T22:26:28.430Z,99443.38
2023-05-23T22:28:56.508Z,99425.25
2023-05-23T22:31:25.030Z,99447.38
2023-05-23T22:33:53.372Z,99442.75
2023-05-23T22:36:21.999Z,99438.44
2023-05-23T22:38:51.482Z,99432.84
2023-05-23T22:41:19.452Z,99431.84
2023-05-23T22:43:47.632Z,99434.19
2023-05-23T22:46:15.898Z,99441.09
2023-05-23T22:48:45.103Z,99427.22
2023-05-23T22:51:14.718Z,99417.03
2023-05-23T22:53:43.343Z,99427.41
2023-05-23T22:56:12.769Z,99427.22
2023-05-23T22:58:40.724Z,99419.94
2023-05-23T23:01:08.847Z,99422.00
2023-05-23T23:03:36.952Z,99406.47
2023-05-23T23:06:06.398Z,99399.75
2023-05-23T23:08:34.705Z,99411.63
2023-05-23T23:11:02.764Z,99408.31
2023-05-23T23:13:32.157Z,99409.16
2023-05-23T23:16:00.250Z,99406.84
2023-05-23T23:18:28.181Z,99414.63
2023-05-23T23:20:56.398Z,99414.94
2023-05-23T23:23:24.449Z,99418.72
2023-05-23T23:25:52.720Z,99414.28
2023-05-23T23:28:21.137Z,99417.38
2023-05-23T23:30:50.526Z,99416.41
2023-05-23T23:33:18.466Z,99405.38
2023-05-23T23:35:48.682Z,99410.66
2023-05-23T23:38:16.963Z,99405.53
2023-05-23T23:40:45.777Z,99407.16
2023-05-23T23:43:13.846Z,99407.63
2023-05-23T23:45:41.951Z,99410.25
2023-05-23T23:48:13.870Z,99406.13
2023-05-23T23:50:42.038Z,99405.84
2023-05-23T23:53:10.187Z,99409.47
2023-05-23T23:55:38.087Z,99382.91
2023-05-23T23:58:06.043Z,99403.03
